Time;durP1;ratioP1;P1;durP2;ratioP2;P2;SDS_P1;SDS_P2;PMS_P1;PMS_P2;Temp;Humidity;BMP_temperature;BMP_pressure;BME280_temperature;BME280_humidity;BME280_pressure;Samples;Min_cycle;Max_cycle;Signal;HPM_P1;HPM_P2
2021/11/09 00:01:58;;;;;;;;;;;8.30;99.90;;;;;;4987944;28;19960;-92
2021/11/09 00:04:29;;;;;;;;;;;8.20;99.90;;;;;;4987955;28;19914;-91
2021/11/09 00:07:44;;;;;;;;;;;8.10;99.90;;;;;;4987771;28;19911;-91
2021/11/09 00:12:44;;;;;;;;;;;8.00;99.90;;;;;;4973499;28;19917;-92
2021/11/09 00:15:12;;;;;;;;;;;7.90;99.90;;;;;;4974885;28;19972;-90
2021/11/09 00:17:38;;;;;;;;;;;7.90;99.90;;;;;;4987664;28;19910;-91
2021/11/09 00:20:06;;;;;;;;;;;7.90;99.90;;;;;;4987779;28;19917;-91
2021/11/09 00:22:32;;;;;;;;;;;7.80;99.90;;;;;;4972732;28;20359;-91
2021/11/09 00:24:58;;;;;;;;;;;7.80;99.90;;;;;;4987609;28;19917;-94
2021/11/09 00:27:23;;;;;;;;;;;7.80;99.90;;;;;;4971255;28;19922;-93
2021/11/09 00:29:49;;;;;;;;;;;7.70;99.90;;;;;;4987803;28;20334;-92
2021/11/09 00:32:16;;;;;;;;;;;7.80;99.90;;;;;;4986801;28;19916;-91
2021/11/09 00:34:42;;;;;;;;;;;7.70;99.90;;;;;;4987625;28;20028;-93
2021/11/09 00:37:11;;;;;;;;;;;7.70;99.90;;;;;;4987318;28;19914;-90
2021/11/09 00:39:37;;;;;;;;;;;7.70;99.90;;;;;;4987352;28;19974;-91
2021/11/09 00:42:03;;;;;;;;;;;7.70;99.90;;;;;;4987081;28;20363;-91
2021/11/09 00:44:29;;;;;;;;;;;7.70;99.90;;;;;;4987692;28;19910;-92
2021/11/09 00:46:55;;;;;;;;;;;7.60;99.90;;;;;;4971108;28;20337;-91
2021/11/09 00:49:21;;;;;;;;;;;7.60;99.90;;;;;;4987273;28;19918;-90
2021/11/09 00:51:47;;;;;;;;;;;7.60;99.90;;;;;;4967901;28;20495;-93
2021/11/09 00:54:13;;;;;;;;;;;7.60;99.90;;;;;;4979136;28;19910;-91
2021/11/09 00:56:38;;;;;;;;;;;7.60;99.90;;;;;;4987148;28;19911;-93
2021/11/09 00:59:04;;;;;;;;;;;7.60;99.90;;;;;;4987307;28;19917;-93
2021/11/09 01:01:31;;;;;;;;;;;7.60;99.90;;;;;;4970673;28;19917;-91
2021/11/09 01:03:56;;;;;;;;;;;7.60;99.90;;;;;;4987095;28;20226;-91
2021/11/09 01:06:22;;;;;;;;;;;7.50;99.90;;;;;;4987200;28;20564;-91
2021/11/09 01:08:48;;;;;;;;;;;7.50;99.90;;;;;;4987117;28;19918;-94
2021/11/09 01:11:14;;;;;;;;;;;7.50;99.90;;;;;;4976329;28;19911;-93
2021/11/09 01:13:40;;;;;;;;;;;7.40;99.90;;;;;;4984408;28;19918;-92
2021/11/09 01:16:05;;;;;;;;;;;7.50;99.90;;;;;;4987459;28;19941;-93
2021/11/09 01:18:34;;;;;;;;;;;7.50;99.90;;;;;;4985984;28;19917;-93
2021/11/09 01:20:59;;;;;;;;;;;7.50;99.90;;;;;;4983599;28;19922;-94
2021/11/09 01:23:26;;;;;;;;;;;7.50;99.90;;;;;;4976743;28;19910;-94
2021/11/09 01:25:52;;;;;;;;;;;7.50;99.90;;;;;;4986950;28;19911;-91
2021/11/09 01:28:18;;;;;;;;;;;7.50;99.90;;;;;;4986955;28;19922;-91
2021/11/09 01:30:44;;;;;;;;;;;7.50;99.90;;;;;;4986949;28;20389;-93
2021/11/09 01:33:10;;;;;;;;;;;7.50;99.90;;;;;;4987058;28;19914;-92
2021/11/09 01:35:36;;;;;;;;;;;7.40;99.90;;;;;;4987044;28;19917;-92
2021/11/09 01:38:02;;;;;;;;;;;7.40;99.90;;;;;;4987121;28;20378;-91
2021/11/09 01:40:28;;;;;;;;;;;7.40;99.90;;;;;;4986645;28;20351;-91
2021/11/09 01:42:55;;;;;;;;;;;7.40;99.90;;;;;;4987334;28;19946;-92
2021/11/09 01:45:21;;;;;;;;;;;7.30;99.90;;;;;;4975536;28;20363;-93
2021/11/09 01:47:47;;;;;;;;;;;7.40;99.90;;;;;;4990567;28;19918;-91
2021/11/09 01:50:15;;;;;;;;;;;7.40;99.90;;;;;;4974526;28;20004;-93
2021/11/09 01:52:41;;;;;;;;;;;7.40;99.90;;;;;;4990512;28;20403;-92
2021/11/09 01:55:07;;;;;;;;;;;7.40;99.90;;;;;;4990669;28;19954;-91
2021/11/09 01:57:33;;;;;;;;;;;7.30;99.90;;;;;;4975178;28;19910;-93
2021/11/09 02:00:03;;;;;;;;;;;7.30;99.90;;;;;;4975465;28;19914;-92
2021/11/09 02:02:28;;;;;;;;;;;7.20;99.90;;;;;;4990320;28;20422;-91
2021/11/09 02:04:54;;;;;;;;;;;7.30;99.90;;;;;;4990166;28;19917;-93
2021/11/09 02:07:20;;;;;;;;;;;7.20;99.90;;;;;;4990719;28;20176;-93
2021/11/09 02:09:46;;;;;;;;;;;7.20;99.90;;;;;;4990250;28;19918;-92
2021/11/09 02:12:11;;;;;;;;;;;7.20;99.90;;;;;;4990338;28;20373;-92
2021/11/09 02:14:37;;;;;;;;;;;7.20;99.90;;;;;;4990080;28;19934;-91
2021/11/09 02:17:03;;;;;;;;;;;7.30;99.90;;;;;;4989927;28;20012;-92
2021/11/09 02:19:29;;;;;;;;;;;7.30;99.90;;;;;;4990108;28;19914;-94
2021/11/09 02:21:55;;;;;;;;;;;7.30;99.90;;;;;;4990371;28;20420;-93
2021/11/09 02:24:20;;;;;;;;;;;7.20;99.90;;;;;;4973920;28;19910;-93
2021/11/09 02:26:46;;;;;;;;;;;7.30;99.90;;;;;;4989406;28;19924;-93
2021/11/09 02:29:12;;;;;;;;;;;7.30;99.90;;;;;;4974993;28;20154;-92
2021/11/09 02:31:37;;;;;;;;;;;7.30;99.90;;;;;;4989729;28;19918;-92
2021/11/09 02:34:03;;;;;;;;;;;7.20;99.90;;;;;;4989885;28;19914;-93
2021/11/09 02:36:29;;;;;;;;;;;7.20;99.90;;;;;;4990298;28;19911;-92
2021/11/09 02:38:54;;;;;;;;;;;7.20;99.90;;;;;;4990156;28;19910;-91
2021/11/09 02:41:20;;;;;;;;;;;7.10;99.90;;;;;;4989719;28;19910;-91
2021/11/09 02:43:46;;;;;;;;;;;7.10;99.90;;;;;;4989143;28;20363;-92
2021/11/09 02:48:50;;;;;;;;;;;7.10;99.90;;;;;;4974345;28;19925;-92
2021/11/09 02:51:29;;;;;;;;;;;7.10;99.90;;;;;;4989489;28;19910;-91
2021/11/09 02:56:58;;;;;;;;;;;7.10;99.90;;;;;;4972867;28;20405;-91
2021/11/09 02:59:37;;;;;;;;;;;7.10;99.90;;;;;;4989292;28;19921;-94
2021/11/09 03:07:35;;;;;;;;;;;7.00;99.90;;;;;;4974400;28;19910;-93
2021/11/09 03:10:07;;;;;;;;;;;7.00;99.90;;;;;;4977976;28;19918;-93
2021/11/09 03:12:34;;;;;;;;;;;7.10;99.90;;;;;;4989152;28;19910;-92
2021/11/09 03:15:00;;;;;;;;;;;7.00;99.90;;;;;;4989308;28;19917;-92
2021/11/09 03:17:34;;;;;;;;;;;7.00;99.90;;;;;;4989155;28;19910;-92
2021/11/09 03:20:02;;;;;;;;;;;6.90;99.90;;;;;;4989219;28;20375;-93
2021/11/09 03:47:22;;;;;;;;;;;6.80;99.90;;;;;;4961027;28;19952;-91
2021/11/09 03:49:50;;;;;;;;;;;6.90;99.90;;;;;;4971708;28;19918;-91
2021/11/09 03:52:22;;;;;;;;;;;6.90;99.90;;;;;;4988685;28;20156;-91
2021/11/09 03:54:52;;;;;;;;;;;6.90;99.90;;;;;;4988309;28;19910;-91
2021/11/09 03:57:23;;;;;;;;;;;6.90;99.90;;;;;;4974902;28;19910;-91
2021/11/09 03:59:59;;;;;;;;;;;6.80;99.90;;;;;;4972035;28;19917;-91
2021/11/09 04:02:33;;;;;;;;;;;6.80;99.90;;;;;;4971753;28;19934;-91
2021/11/09 04:15:26;;;;;;;;;;;6.80;99.90;;;;;;4972898;28;19913;-94
2021/11/09 04:31:14;;;;;;;;;;;6.70;99.90;;;;;;4972988;28;20485;-92
2021/11/09 05:10:48;;;;;;;;;;;6.30;99.90;;;;;;4972022;28;19910;-92
2021/11/09 05:13:14;;;;;;;;;;;6.30;99.90;;;;;;4970936;28;20425;-93
2021/11/09 05:15:43;;;;;;;;;;;6.30;99.90;;;;;;4970607;28;19911;-91
2021/11/09 05:18:08;;;;;;;;;;;6.20;99.90;;;;;;4988252;28;19922;-93
2021/11/09 05:20:34;;;;;;;;;;;6.20;99.90;;;;;;4975033;28;19910;-94
2021/11/09 05:22:59;;;;;;;;;;;6.20;99.90;;;;;;4975296;28;19910;-92
2021/11/09 05:25:25;;;;;;;;;;;6.10;99.90;;;;;;4974878;28;20507;-91
2021/11/09 05:27:51;;;;;;;;;;;6.20;99.90;;;;;;4974449;28;20402;-92
2021/11/09 05:30:17;;;;;;;;;;;6.20;99.90;;;;;;4974680;28;19921;-92
2021/11/09 05:32:43;;;;;;;;;;;6.10;99.90;;;;;;4975464;28;19917;-94
2021/11/09 05:35:09;;;;;;;;;;;6.20;99.90;;;;;;4974567;28;19933;-93
2021/11/09 05:37:46;;;;;;;;;;;6.10;99.90;;;;;;4991202;28;19910;-92
2021/11/09 05:40:12;;;;;;;;;;;6.10;99.90;;;;;;4973663;28;20044;-94
2021/11/09 05:42:38;;;;;;;;;;;6.10;99.90;;;;;;4990892;28;19942;-92
2021/11/09 05:45:04;;;;;;;;;;;6.10;99.90;;;;;;4990788;28;19941;-93
2021/11/09 05:47:30;;;;;;;;;;;6.10;99.90;;;;;;4990733;28;19933;-92
2021/11/09 05:49:56;;;;;;;;;;;6.10;99.90;;;;;;4990522;28;20311;-91
2021/11/09 05:52:22;;;;;;;;;;;6.00;99.90;;;;;;4990585;28;19910;-94
2021/11/09 05:54:48;;;;;;;;;;;6.00;99.90;;;;;;4978365;28;19961;-92
2021/11/09 05:57:14;;;;;;;;;;;6.00;99.90;;;;;;4989084;28;20004;-91
2021/11/09 05:59:40;;;;;;;;;;;6.00;99.90;;;;;;4990504;28;19910;-92
2021/11/09 06:02:06;;;;;;;;;;;6.00;99.90;;;;;;4990510;28;19910;-91
2021/11/09 06:04:31;;;;;;;;;;;6.00;99.90;;;;;;4990520;28;19965;-92
2021/11/09 06:06:57;;;;;;;;;;;6.10;99.90;;;;;;4975144;28;20393;-92
2021/11/09 06:09:23;;;;;;;;;;;6.10;99.90;;;;;;4990053;28;20417;-93
2021/11/09 06:11:48;;;;;;;;;;;6.10;99.90;;;;;;4990284;28;19933;-94
2021/11/09 06:14:14;;;;;;;;;;;6.10;99.90;;;;;;4990028;28;19988;-92
2021/11/09 06:16:40;;;;;;;;;;;6.10;99.90;;;;;;4990076;28;19910;-93
2021/11/09 06:19:05;;;;;;;;;;;6.10;99.90;;;;;;4990105;28;20426;-91
2021/11/09 06:21:31;;;;;;;;;;;6.20;99.90;;;;;;4989966;28;19911;-92
2021/11/09 06:23:57;;;;;;;;;;;6.20;99.90;;;;;;4989909;28;20310;-92
2021/11/09 06:26:23;;;;;;;;;;;6.20;99.90;;;;;;4990950;28;20291;-93
2021/11/09 18:21:08;;;;;;;;;;;9.70;99.90;;;;;;5005489;28;19920;-93
2021/11/09 18:23:43;;;;;;;;;;;;;;;;;;;;;
2021/11/09 18:32:56;;;;;;;;;;;;;;;;;;;;;
